Time;durP1;ratioP1;P1;durP2;ratioP2;P2;SDS_P1;SDS_P2;PMS_P1;PMS_P2;Temp;Humidity;BMP_temperature;BMP_pressure;BME280_temperature;BME280_humidity;BME280_pressure;Samples;Min_cycle;Max_cycle;Signal;HPM_P1;HPM_P2
2023/01/11 00:00:00;;;;;;;0.7;0.6;;;;;;;;;;;;;
2023/01/11 00:02:26;;;;;;;1.9;1.7;;;;;;;;;;;;;
2023/01/11 00:04:51;;;;;;;2.8;2;;;;;;;;;;;;;
2023/01/11 00:07:20;;;;;;;3.6;2.8;;;;;;;;;;;;;
2023/01/11 00:09:46;;;;;;;3.1;2.1;;;;;;;;;;;;;
2023/01/11 00:12:13;;;;;;;2.5;1.5;;;;;;;;;;;;;
2023/01/11 00:14:42;;;;;;;4.9;2.7;;;;;;;;;;;;;
2023/01/11 00:17:08;;;;;;;5.6;3.1;;;;;;;;;;;;;
2023/01/11 00:19:37;;;;;;;4.1;2.6;;;;;;;;;;;;;
2023/01/11 00:22:02;;;;;;;4.9;2.8;;;;;;;;;;;;;
2023/01/11 00:24:36;;;;;;;4.8;2.6;;;;;;;;;;;;;
2023/01/11 00:27:08;;;;;;;5.6;2.4;;;;;;;;;;;;;
2023/01/11 00:29:41;;;;;;;2.7;1.7;;;;;;;;;;;;;
2023/01/11 00:32:07;;;;;;;4.3;2.4;;;;;;;;;;;;;
2023/01/11 00:34:38;;;;;;;3.6;2.3;;;;;;;;;;;;;
2023/01/11 00:37:11;;;;;;;2.5;1.9;;;;;;;;;;;;;
2023/01/11 00:39:36;;;;;;;2.3;1.6;;;;;;;;;;;;;
2023/01/11 00:49:30;;;;;;;0.7;0.6;;;;;;;;;;;;;
2023/01/11 00:52:07;;;;;;;1.5;0.5;;;;;;;;;;;;;
2023/01/11 00:54:31;;;;;;;1.2;0.8;;;;;;;;;;;;;
2023/01/11 00:57:02;;;;;;;1.8;1.1;;;;;;;;;;;;;
2023/01/11 00:59:38;;;;;;;1.5;0.8;;;;;;;;;;;;;
2023/01/11 01:02:07;;;;;;;1.2;0.8;;;;;;;;;;;;;
2023/01/11 01:04:38;;;;;;;1;0.7;;;;;;;;;;;;;
2023/01/11 01:07:06;;;;;;;1.2;0.8;;;;;;;;;;;;;
2023/01/11 01:09:32;;;;;;;0.7;0.6;;;;;;;;;;;;;
2023/01/11 01:12:02;;;;;;;2;0.7;;;;;;;;;;;;;
2023/01/11 01:14:34;;;;;;;0.8;0.5;;;;;;;;;;;;;
2023/01/11 01:17:01;;;;;;;1.2;0.5;;;;;;;;;;;;;
2023/01/11 01:19:28;;;;;;;0.6;0.6;;;;;;;;;;;;;
2023/01/11 01:22:00;;;;;;;0.6;0.6;;;;;;;;;;;;;
2023/01/11 01:24:32;;;;;;;1.7;0.8;;;;;;;;;;;;;
2023/01/11 01:27:01;;;;;;;1;0.8;;;;;;;;;;;;;
2023/01/11 01:29:27;;;;;;;1.6;0.9;;;;;;;;;;;;;
2023/01/11 01:31:55;;;;;;;0.7;0.5;;;;;;;;;;;;;
2023/01/11 01:34:20;;;;;;;0.6;0.6;;;;;;;;;;;;;
2023/01/11 01:36:52;;;;;;;1.3;0.9;;;;;;;;;;;;;
2023/01/11 01:39:18;;;;;;;1.6;0.7;;;;;;;;;;;;;
2023/01/11 01:41:43;;;;;;;1.3;0.7;;;;;;;;;;;;;
2023/01/11 01:44:12;;;;;;;1.2;0.9;;;;;;;;;;;;;
2023/01/11 01:46:41;;;;;;;1.2;0.9;;;;;;;;;;;;;
2023/01/11 01:49:10;;;;;;;1.5;0.8;;;;;;;;;;;;;
2023/01/11 01:51:43;;;;;;;0.7;0.6;;;;;;;;;;;;;
2023/01/11 01:54:09;;;;;;;1;0.8;;;;;;;;;;;;;
2023/01/11 01:56:34;;;;;;;0.6;0.6;;;;;;;;;;;;;
2023/01/11 01:59:06;;;;;;;1.7;0.8;;;;;;;;;;;;;
2023/01/11 02:01:48;;;;;;;2.8;1.1;;;;;;;;;;;;;
2023/01/11 02:03:56;;;;;;;1.3;1;;;;;;;;;;;;;
2023/01/11 02:06:26;;;;;;;1;0.9;;;;;;;;;;;;;
2023/01/11 02:08:58;;;;;;;1.9;1;;;;;;;;;;;;;
2023/01/11 02:11:30;;;;;;;1;0.8;;;;;;;;;;;;;
2023/01/11 02:13:58;;;;;;;1.1;0.9;;;;;;;;;;;;;
2023/01/11 02:16:23;;;;;;;0.7;0.7;;;;;;;;;;;;;
2023/01/11 02:18:53;;;;;;;1.4;0.9;;;;;;;;;;;;;
2023/01/11 02:21:28;;;;;;;1.2;1.1;;;;;;;;;;;;;
2023/01/11 02:23:53;;;;;;;1.5;1;;;;;;;;;;;;;
2023/01/11 02:26:19;;;;;;;1.1;1;;;;;;;;;;;;;
2023/01/11 02:28:47;;;;;;;2;1.2;;;;;;;;;;;;;
2023/01/11 02:31:12;;;;;;;2.2;1.1;;;;;;;;;;;;;
2023/01/11 02:33:37;;;;;;;2.2;1.3;;;;;;;;;;;;;
2023/01/11 02:36:02;;;;;;;3.5;1.5;;;;;;;;;;;;;
2023/01/11 02:38:30;;;;;;;2.2;1.3;;;;;;;;;;;;;
2023/01/11 02:40:55;;;;;;;2.3;1.2;;;;;;;;;;;;;
2023/01/11 02:45:46;;;;;;;2.9;1.1;;;;;;;;;;;;;
2023/01/11 02:48:13;;;;;;;2.6;1.4;;;;;;;;;;;;;
2023/01/11 02:50:38;;;;;;;5.8;3.7;;;;;;;;;;;;;
2023/01/11 02:53:03;;;;;;;13.9;7;;;;;;;;;;;;;
2023/01/11 02:55:28;;;;;;;5.1;3.3;;;;;;;;;;;;;
2023/01/11 02:57:54;;;;;;;2.8;1.6;;;;;;;;;;;;;
2023/01/11 03:00:19;;;;;;;2;1.3;;;;;;;;;;;;;
2023/01/11 03:02:47;;;;;;;2.5;1.5;;;;;;;;;;;;;
2023/01/11 03:05:12;;;;;;;2.5;1.4;;;;;;;;;;;;;
2023/01/11 03:07:37;;;;;;;4.9;3.2;;;;;;;;;;;;;
2023/01/11 03:10:02;;;;;;;4.8;2.9;;;;;;;;;;;;;
2023/01/11 03:14:52;;;;;;;10.1;4.9;;;;;;;;;;;;;
2023/01/11 03:17:17;;;;;;;15.7;8.2;;;;;;;;;;;;;
2023/01/11 03:19:43;;;;;;;9.1;5.3;;;;;;;;;;;;;
2023/01/11 03:22:08;;;;;;;6.2;3.5;;;;;;;;;;;;;
2023/01/11 03:24:33;;;;;;;4.2;3.2;;;;;;;;;;;;;
2023/01/11 03:27:00;;;;;;;2.8;1.8;;;;;;;;;;;;;
2023/01/11 03:29:25;;;;;;;2.4;1.5;;;;;;;;;;;;;
2023/01/11 03:31:50;;;;;;;2.4;1.3;;;;;;;;;;;;;
2023/01/11 03:34:18;;;;;;;1.7;1.2;;;;;;;;;;;;;
2023/01/11 03:36:43;;;;;;;2.5;1.4;;;;;;;;;;;;;
2023/01/11 03:39:08;;;;;;;2.3;1.7;;;;;;;;;;;;;
2023/01/11 03:41:34;;;;;;;2.2;1.2;;;;;;;;;;;;;
2023/01/11 03:43:59;;;;;;;2.2;1.5;;;;;;;;;;;;;
2023/01/11 03:46:24;;;;;;;1.8;1.1;;;;;;;;;;;;;
2023/01/11 03:48:49;;;;;;;2.3;1.1;;;;;;;;;;;;;
2023/01/11 03:51:14;;;;;;;1.7;1.3;;;;;;;;;;;;;
2023/01/11 03:53:40;;;;;;;1.7;1.3;;;;;;;;;;;;;
2023/01/11 03:56:06;;;;;;;1.7;1.1;;;;;;;;;;;;;
2023/01/11 03:58:31;;;;;;;2.8;1.3;;;;;;;;;;;;;
2023/01/11 04:02:35;;;;;;;2.3;1.3;;;;;;;1.88;86.75;939.892;;;;
2023/01/11 04:05:00;;;;;;;1.6;1;;;;;;;1.93;86.72559;939.9027;;;;
2023/01/11 04:07:30;;;;;;;2.1;1.3;;;;;;;1.92;86.84668;939.8646;;;;
2023/01/11 04:09:57;;;;;;;2.5;1.9;;;;;;;1.93;87.12988;939.9297;;;;
2023/01/11 04:12:21;;;;;;;3.4;1.6;;;;;;;1.89;87.91699;939.9106;;;;
2023/01/11 04:14:46;;;;;;;3.4;2;;;;;;;1.76;89.13086;939.8809;;;;
2023/01/11 04:20:40;;;;;;;2.5;1.2;;;;;;;1.52;90.08496;939.7672;;;;
2023/01/11 04:23:05;;;;;;;2.2;1.2;;;;;;;1.48;89.97754;939.7612;;;;
2023/01/11 04:25:36;;;;;;;2.6;1.7;;;;;;;1.48;90.24316;939.7375;;;;
2023/01/11 04:28:04;;;;;;;1.6;1.2;;;;;;;1.49;89.63281;939.7239;;;;
2023/01/11 04:31:02;;;;;;;2.2;1.4;;;;;;;1.47;88.6543;939.6783;;;;
2023/01/11 04:33:33;;;;;;;9.2;4.6;;;;;;;1.46;89.27832;939.7281;;;;
2023/01/11 04:36:04;;;;;;;6.5;3.6;;;;;;;1.53;88.83496;939.7321;;;;
2023/01/11 04:44:26;;;;;;;3.8;2.1;;;;;;;1.51;88.02637;939.6334;;;;
2023/01/11 04:46:56;;;;;;;4.7;2;;;;;;;1.49;88.46973;939.6895;;;;
2023/01/11 04:49:21;;;;;;;3.8;2.2;;;;;;;1.49;88.6709;939.6394;;;;
2023/01/11 04:51:49;;;;;;;3.5;2.1;;;;;;;1.49;88.61523;939.6152;;;;
2023/01/11 04:54:14;;;;;;;3.9;1.9;;;;;;;1.4;89.13281;939.5926;;;;
2023/01/11 04:56:42;;;;;;;3.3;1.8;;;;;;;1.47;88.63184;939.6147;;;;
2023/01/11 04:59:07;;;;;;;2.6;1.5;;;;;;;1.52;88.35254;939.6564;;;;
2023/01/11 05:01:37;;;;;;;1.7;1.4;;;;;;;1.52;88.07129;939.5991;;;;
2023/01/11 05:04:02;;;;;;;1.3;1;;;;;;;1.52;87.31055;939.5542;;;;
2023/01/11 05:06:32;;;;;;;2;1.2;;;;;;;1.54;87.69629;939.5695;;;;
2023/01/11 05:08:57;;;;;;;1.6;1.2;;;;;;;1.41;88.08203;939.5178;;;;
2023/01/11 05:11:22;;;;;;;2.6;1.6;;;;;;;1.37;89.08008;939.5667;;;;
2023/01/11 05:13:51;;;;;;;3.3;2.2;;;;;;;1.34;89.49902;939.567;;;;
2023/01/11 05:16:16;;;;;;;3.5;2.4;;;;;;;1.29;90.00195;939.5912;;;;
2023/01/11 05:18:44;;;;;;;2.4;1.5;;;;;;;1.24;90.40527;939.5782;;;;
2023/01/11 05:21:10;;;;;;;2.7;1.6;;;;;;;1.29;90.125;939.5577;;;;
2023/01/11 05:23:40;;;;;;;1.7;1.2;;;;;;;1.25;89.91602;939.5731;;;;
2023/01/11 05:26:05;;;;;;;2;1.3;;;;;;;1.27;89.76367;939.6031;;;;
2023/01/11 05:28:34;;;;;;;2.2;1.8;;;;;;;1.25;90.15039;939.6486;;;;
2023/01/11 05:30:59;;;;;;;5.4;2.4;;;;;;;1.18;90.43848;939.6852;;;;
2023/01/11 05:33:31;;;;;;;4.2;2.8;;;;;;;1.27;90.22168;939.7656;;;;
2023/01/11 05:35:59;;;;;;;4.6;3.7;;;;;;;1.35;89.48047;939.6972;;;;
2023/01/11 05:38:24;;;;;;;4.3;3;;;;;;;1.36;89.20117;939.7211;;;;
2023/01/11 05:40:49;;;;;;;3.1;2.3;;;;;;;1.4;88.92969;939.7241;;;;
2023/01/11 05:43:16;;;;;;;2.6;2.2;;;;;;;1.37;88.92578;939.7216;;;;
2023/01/11 05:45:42;;;;;;;2.1;1.5;;;;;;;1.38;88.81641;939.6797;;;;
2023/01/11 05:48:41;;;;;;;2.4;1.7;;;;;;;1.42;88.46582;939.6785;;;;
2023/01/11 05:51:10;;;;;;;2;1.5;;;;;;;1.38;88.61523;939.6286;;;;
2023/01/11 05:53:35;;;;;;;2.4;1.7;;;;;;;1.32;88.55664;939.731;;;;
2023/01/11 05:56:07;;;;;;;3.1;2.3;;;;;;;1.31;88.90137;939.678;;;;
2023/01/11 05:58:38;;;;;;;4.6;2.4;;;;;;;1.33;89.02637;939.7265;;;;
2023/01/11 06:01:07;;;;;;;5.3;2.6;;;;;;;1.32;89.10449;939.822;;;;
2023/01/11 06:03:35;;;;;;;1.8;1.7;;;;;;;1.26;89.22559;939.8527;;;;
2023/01/11 06:06:05;;;;;;;2.7;2;;;;;;;1.22;89.13965;939.8574;;;;
2023/01/11 06:08:30;;;;;;;2.7;1.9;;;;;;;1.2;89.52441;939.8364;;;;
2023/01/11 06:11:02;;;;;;;2.1;1.7;;;;;;;1.16;89.62891;939.7695;;;;
2023/01/11 06:13:32;;;;;;;2.4;1.9;;;;;;;1.14;89.69238;939.8353;;;;
2023/01/11 06:15:57;;;;;;;2.5;2;;;;;;;1.16;89.7959;939.8956;;;;
2023/01/11 06:18:23;;;;;;;3.5;2.7;;;;;;;1.15;89.7832;939.8513;;;;
2023/01/11 06:20:48;;;;;;;1.8;1.4;;;;;;;1.19;88.79883;939.8488;;;;
2023/01/11 06:23:13;;;;;;;1.5;1.4;;;;;;;1.26;88.52148;939.8488;;;;
2023/01/11 06:25:45;;;;;;;2.4;1.3;;;;;;;1.28;87.95703;939.8044;;;;
2023/01/11 06:28:10;;;;;;;1.2;1;;;;;;;1.27;87.80859;939.8525;;;;
2023/01/11 06:30:35;;;;;;;1.2;1.1;;;;;;;1.49;89.10742;939.816;;;;
2023/01/11 06:33:06;;;;;;;2.8;2.2;;;;;;;1.64;86.25195;939.7492;;;;
2023/01/11 06:35:30;;;;;;;2.3;1.9;;;;;;;1.74;85.60352;939.7685;;;;
2023/01/11 06:37:58;;;;;;;3.5;2.4;;;;;;;1.8;84.5957;939.8469;;;;
2023/01/11 06:40:23;;;;;;;5;2.6;;;;;;;1.85;84.4043;939.8088;;;;
2023/01/11 06:42:53;;;;;;;4.3;3.5;;;;;;;1.95;84.48145;939.7374;;;;
2023/01/11 06:45:24;;;;;;;5.7;3.6;;;;;;;1.86;84.23926;939.8214;;;;
2023/01/11 06:47:53;;;;;;;8.2;4.3;;;;;;;1.74;85.07715;939.7293;;;;
2023/01/11 06:50:18;;;;;;;6.2;3.9;;;;;;;1.54;86.13184;939.6903;;;;
2023/01/11 06:52:45;;;;;;;6.7;4.3;;;;;;;1.36;87.36914;939.7043;;;;
2023/01/11 06:55:10;;;;;;;6.5;4;;;;;;;1.33;87.85449;939.7007;;;;
2023/01/11 06:57:35;;;;;;;4;2.4;;;;;;;1.32;87.66113;939.69;;;;
2023/01/11 07:00:03;;;;;;;3.3;2.3;;;;;;;1.31;87.98535;939.6213;;;;
2023/01/11 07:02:31;;;;;;;2.3;1.5;;;;;;;1.32;88.04297;939.6478;;;;
2023/01/11 07:04:59;;;;;;;3.7;2.3;;;;;;;1.28;88.22559;939.5879;;;;
2023/01/11 07:07:25;;;;;;;2.9;1.9;;;;;;;1.29;88.62793;939.601;;;;
2023/01/11 07:09:54;;;;;;;4;2.2;;;;;;;1.45;89.56738;939.5786;;;;
2023/01/11 07:12:19;;;;;;;3.6;2.3;;;;;;;1.53;89.33789;939.532;;;;
2023/01/11 07:18:20;;;;;;;3.5;1.8;;;;;;;1.41;87.33496;939.5588;;;;
2023/01/11 07:20:45;;;;;;;3.8;3.1;;;;;;;1.46;87.07813;939.5981;;;;
2023/01/11 07:23:11;;;;;;;2.2;1.7;;;;;;;1.43;87.37207;939.6122;;;;
2023/01/11 07:25:36;;;;;;;2.9;1.7;;;;;;;1.38;87.87695;939.6004;;;;
2023/01/11 07:28:04;;;;;;;6.3;4.2;;;;;;;1.28;88.74902;939.6011;;;;
2023/01/11 07:30:30;;;;;;;7;3.9;;;;;;;1.23;89.4541;939.5598;;;;
2023/01/11 07:32:59;;;;;;;9.7;6.6;;;;;;;1.25;89.72461;939.5486;;;;
2023/01/11 07:35:30;;;;;;;10.5;6;;;;;;;1.33;89.55566;939.5911;;;;
2023/01/11 07:37:58;;;;;;;6.9;4;;;;;;;1.41;88.76563;939.5901;;;;
2023/01/11 07:40:35;;;;;;;4.9;2.9;;;;;;;1.48;87.51758;939.5903;;;;
2023/01/11 07:43:13;;;;;;;4.4;2.8;;;;;;;1.62;87.28906;939.6351;;;;
2023/01/11 07:45:31;;;;;;;4.2;3;;;;;;;1.76;86.9248;939.5754;;;;
2023/01/11 07:47:56;;;;;;;6.1;3;;;;;;;1.73;86.5166;939.601;;;;
2023/01/11 07:50:29;;;;;;;5.7;3.1;;;;;;;1.68;86.11621;939.5328;;;;
2023/01/11 07:52:58;;;;;;;7.3;4;;;;;;;1.79;86.60645;939.5413;;;;
2023/01/11 07:55:24;;;;;;;8.2;3.9;;;;;;;1.98;86.24414;939.5707;;;;
2023/01/11 07:57:53;;;;;;;6;3.5;;;;;;;2.09;85.01172;939.6469;;;;
2023/01/11 08:00:18;;;;;;;5.5;3.4;;;;;;;2.12;84.87207;939.6262;;;;
2023/01/11 08:02:44;;;;;;;4.9;3.1;;;;;;;2.35;84.24707;939.7336;;;;
2023/01/11 08:05:15;;;;;;;4.2;2.7;;;;;;;2.41;83.75391;939.7192;;;;
2023/01/11 08:07:41;;;;;;;4.7;3.2;;;;;;;2.48;83.8125;939.5884;;;;
2023/01/11 08:10:09;;;;;;;7.4;4;;;;;;;;;;;;;
2023/01/11 08:14:59;;;;;;;5.4;3.5;;;;;;;;;;;;;
2023/01/11 08:17:24;;;;;;;5.6;3.8;;;;;;;;;;;;;
2023/01/11 08:19:50;;;;;;;6.1;3.8;;;;;;;;;;;;;
2023/01/11 08:22:16;;;;;;;4.7;3.2;;;;;;;;;;;;;
2023/01/11 08:24:40;;;;;;;4.2;2.8;;;;;;;;;;;;;
2023/01/11 08:27:05;;;;;;;2.1;1.5;;;;;;;;;;;;;
2023/01/11 08:29:31;;;;;;;3;1.8;;;;;;;;;;;;;
2023/01/11 08:31:56;;;;;;;3.6;2;;;;;;;;;;;;;
2023/01/11 08:34:21;;;;;;;2.7;2.1;;;;;;;;;;;;;
2023/01/11 08:36:46;;;;;;;3.1;2.3;;;;;;;;;;;;;
2023/01/11 08:39:11;;;;;;;3.6;2.2;;;;;;;;;;;;;
2023/01/11 08:41:39;;;;;;;3.8;2.8;;;;;;;;;;;;;
2023/01/11 08:44:04;;;;;;;3.7;2.4;;;;;;;;;;;;;
2023/01/11 08:46:32;;;;;;;4.9;3.9;;;;;;;;;;;;;
2023/01/11 08:48:55;;;;;;;4.7;3.5;;;;;;;;;;;;;
2023/01/11 08:51:21;;;;;;;3;2;;;;;;;;;;;;;
2023/01/11 08:53:46;;;;;;;3.5;2.5;;;;;;;;;;;;;
2023/01/11 08:56:13;;;;;;;4.2;2.6;;;;;;;;;;;;;
2023/01/11 08:58:37;;;;;;;4.5;2.7;;;;;;;;;;;;;
2023/01/11 09:01:06;;;;;;;4.6;3.1;;;;;;;;;;;;;
2023/01/11 09:03:28;;;;;;;6.5;3.7;;;;;;;;;;;;;
2023/01/11 09:05:55;;;;;;;5.3;3;;;;;;;;;;;;;
2023/01/11 09:08:18;;;;;;;1.6;1.3;;;;;;;;;;;;;
2023/01/11 09:10:45;;;;;;;5;2.9;;;;;;;;;;;;;
2023/01/11 09:13:11;;;;;;;4.2;2.7;;;;;;;;;;;;;
2023/01/11 09:15:38;;;;;;;4.7;2.9;;;;;;;;;;;;;
2023/01/11 09:18:04;;;;;;;6.2;3.8;;;;;;;;;;;;;
2023/01/11 09:20:31;;;;;;;8;4.3;;;;;;;;;;;;;
2023/01/11 09:22:56;;;;;;;6.3;4.1;;;;;;;;;;;;;
2023/01/11 09:25:22;;;;;;;5.2;3.6;;;;;;;;;;;;;
2023/01/11 09:27:47;;;;;;;7;5.1;;;;;;;;;;;;;
2023/01/11 09:30:12;;;;;;;6.1;3.8;;;;;;;;;;;;;
2023/01/11 09:32:37;;;;;;;4.4;3.1;;;;;;;;;;;;;
2023/01/11 09:35:03;;;;;;;4.6;2.3;;;;;;;;;;;;;
2023/01/11 09:37:28;;;;;;;4;2.2;;;;;;;;;;;;;
2023/01/11 09:39:58;;;;;;;2.2;1.3;;;;;;;;;;;;;
2023/01/11 09:42:23;;;;;;;1.1;0.9;;;;;;;;;;;;;
2023/01/11 09:44:50;;;;;;;1.6;1;;;;;;;;;;;;;
2023/01/11 09:47:15;;;;;;;1.2;1;;;;;;;;;;;;;
2023/01/11 09:49:44;;;;;;;1.6;0.8;;;;;;;;;;;;;
2023/01/11 09:52:09;;;;;;;1.9;1.2;;;;;;;;;;;;;
2023/01/11 09:54:33;;;;;;;3.6;1.7;;;;;;;;;;;;;
2023/01/11 09:56:59;;;;;;;3.6;2.3;;;;;;;;;;;;;
2023/01/11 09:59:25;;;;;;;2.7;1.9;;;;;;;;;;;;;
2023/01/11 10:01:52;;;;;;;2.5;1.6;;;;;;;;;;;;;
2023/01/11 10:04:21;;;;;;;1.6;0.9;;;;;;;;;;;;;
2023/01/11 10:06:42;;;;;;;3.3;2.5;;;;;;;;;;;;;
2023/01/11 10:09:08;;;;;;;6.7;3.8;;;;;;;;;;;;;
2023/01/11 10:11:33;;;;;;;5.2;3.1;;;;;;;;;;;;;
2023/01/11 10:13:59;;;;;;;2.9;2.2;;;;;;;;;;;;;
2023/01/11 10:16:27;;;;;;;3.8;2.3;;;;;;;;;;;;;
2023/01/11 10:18:49;;;;;;;2.2;1.7;;;;;;;;;;;;;
2023/01/11 10:21:19;;;;;;;6;2.1;;;;;;;;;;;;;
2023/01/11 10:23:45;;;;;;;3.2;1.7;;;;;;;;;;;;;
2023/01/11 10:26:15;;;;;;;1.8;1.4;;;;;;;;;;;;;
2023/01/11 10:28:34;;;;;;;3.2;2.2;;;;;;;;;;;;;
2023/01/11 10:31:25;;;;;;;5.7;2.6;;;;;;;;;;;;;
2023/01/11 10:33:44;;;;;;;3.7;1.9;;;;;;;;;;;;;
2023/01/11 10:36:04;;;;;;;1.4;1;;;;;;;;;;;;;
2023/01/11 10:38:29;;;;;;;2.3;1.7;;;;;;;;;;;;;
2023/01/11 10:41:01;;;;;;;2.9;1.6;;;;;;;;;;;;;
2023/01/11 10:43:06;;;;;;;4.6;2.8;;;;;;;;;;;;;
2023/01/11 10:45:31;;;;;;;2.9;1.5;;;;;;;;;;;;;
2023/01/11 10:47:54;;;;;;;2.4;1.1;;;;;;;;;;;;;
2023/01/11 10:50:20;;;;;;;1.7;1;;;;;;;;;;;;;
2023/01/11 10:52:46;;;;;;;2.1;0.8;;;;;;;;;;;;;
2023/01/11 10:55:13;;;;;;;5.3;1.6;;;;;;;;;;;;;
2023/01/11 10:57:37;;;;;;;2.4;1.4;;;;;;;;;;;;;
2023/01/11 11:00:03;;;;;;;21.8;3.8;;;;;;;;;;;;;
2023/01/11 11:02:28;;;;;;;8.4;1.6;;;;;;;;;;;;;
2023/01/11 11:04:55;;;;;;;3.6;1.7;;;;;;;;;;;;;
2023/01/11 11:07:20;;;;;;;2.3;1.1;;;;;;;;;;;;;
2023/01/11 11:09:45;;;;;;;2.7;1.1;;;;;;;;;;;;;
2023/01/11 11:12:11;;;;;;;1.5;1.2;;;;;;;;;;;;;
2023/01/11 11:14:36;;;;;;;3.7;1.1;;;;;;;;;;;;;
2023/01/11 11:17:02;;;;;;;3;1;;;;;;;;;;;;;
2023/01/11 11:19:28;;;;;;;1.4;0.5;;;;;;;;;;;;;
2023/01/11 11:21:55;;;;;;;2.2;1.2;;;;;;;;;;;;;
2023/01/11 11:24:20;;;;;;;1.6;0.8;;;;;;;;;;;;;
2023/01/11 11:26:45;;;;;;;3.8;1.1;;;;;;;;;;;;;
2023/01/11 11:29:11;;;;;;;3.2;1.5;;;;;;;;;;;;;
2023/01/11 11:31:36;;;;;;;3.2;1.6;;;;;;;;;;;;;
2023/01/11 11:34:01;;;;;;;7.4;2;;;;;;;;;;;;;
2023/01/11 11:36:26;;;;;;;4.5;1.8;;;;;;;;;;;;;
2023/01/11 11:38:51;;;;;;;4;1.5;;;;;;;;;;;;;
2023/01/11 11:41:18;;;;;;;3.4;1.6;;;;;;;;;;;;;
2023/01/11 11:43:43;;;;;;;5.2;2;;;;;;;;;;;;;
2023/01/11 11:46:08;;;;;;;5.1;2.5;;;;;;;;;;;;;
2023/01/11 11:48:34;;;;;;;8.9;3.8;;;;;;;;;;;;;
2023/01/11 11:50:59;;;;;;;7.7;3.1;;;;;;;;;;;;;
2023/01/11 11:53:26;;;;;;;3.8;1.8;;;;;;;;;;;;;
2023/01/11 11:55:51;;;;;;;4.1;1.8;;;;;;;;;;;;;
2023/01/11 11:58:18;;;;;;;3.7;1.3;;;;;;;;;;;;;
2023/01/11 12:00:43;;;;;;;1.6;1;;;;;;;;;;;;;
2023/01/11 12:03:09;;;;;;;0.5;0.5;;;;;;;;;;;;;
2023/01/11 12:05:34;;;;;;;3.7;1.2;;;;;;;;;;;;;
2023/01/11 12:08:00;;;;;;;4.9;2;;;;;;;;;;;;;
2023/01/11 12:10:25;;;;;;;7.4;2.1;;;;;;;;;;;;;
2023/01/11 12:12:51;;;;;;;9.5;2.8;;;;;;;;;;;;;
2023/01/11 12:15:16;;;;;;;5.1;1.7;;;;;;;;;;;;;
2023/01/11 12:17:41;;;;;;;3.8;1.8;;;;;;;;;;;;;
2023/01/11 12:20:06;;;;;;;2.8;1.3;;;;;;;;;;;;;
2023/01/11 12:22:32;;;;;;;3.2;2;;;;;;;;;;;;;
2023/01/11 12:24:58;;;;;;;0.7;0.5;;;;;;;;;;;;;
2023/01/11 12:27:23;;;;;;;0.6;0.4;;;;;;;;;;;;;
2023/01/11 12:29:50;;;;;;;0.9;0.7;;;;;;;;;;;;;
2023/01/11 12:32:15;;;;;;;0.5;0.5;;;;;;;;;;;;;
2023/01/11 12:34:40;;;;;;;1.5;1;;;;;;;;;;;;;
2023/01/11 12:37:09;;;;;;;2.1;1.2;;;;;;;;;;;;;
2023/01/11 12:39:34;;;;;;;4;1.1;;;;;;;;;;;;;
2023/01/11 12:41:59;;;;;;;2;1.2;;;;;;;;;;;;;
2023/01/11 12:44:24;;;;;;;3.9;1;;;;;;;;;;;;;
2023/01/11 12:46:49;;;;;;;3.7;1.1;;;;;;;;;;;;;
2023/01/11 12:49:16;;;;;;;8.5;1.9;;;;;;;;;;;;;
2023/01/11 12:51:41;;;;;;;6.6;1.7;;;;;;;;;;;;;
2023/01/11 12:54:06;;;;;;;17.7;3.9;;;;;;;;;;;;;
2023/01/11 12:56:31;;;;;;;3.5;1.6;;;;;;;;;;;;;
2023/01/11 12:58:56;;;;;;;4.8;2.3;;;;;;;;;;;;;
2023/01/11 13:01:21;;;;;;;4.9;2;;;;;;;;;;;;;
2023/01/11 13:03:47;;;;;;;3.6;1.9;;;;;;;;;;;;;
2023/01/11 13:06:12;;;;;;;3;2.4;;;;;;;;;;;;;
2023/01/11 13:08:39;;;;;;;2;1.7;;;;;;;;;;;;;
2023/01/11 13:11:03;;;;;;;1.9;1.6;;;;;;;;;;;;;
2023/01/11 13:13:28;;;;;;;1.9;1.1;;;;;;;;;;;;;
2023/01/11 13:15:55;;;;;;;1.9;1.1;;;;;;;;;;;;;
2023/01/11 13:18:20;;;;;;;4;1.6;;;;;;;;;;;;;
2023/01/11 13:20:45;;;;;;;4.5;2;;;;;;;;;;;;;
2023/01/11 13:23:12;;;;;;;3.7;1.8;;;;;;;;;;;;;
2023/01/11 13:25:38;;;;;;;7.3;2.3;;;;;;;;;;;;;
2023/01/11 13:28:03;;;;;;;3.8;2.5;;;;;;;;;;;;;
2023/01/11 13:30:28;;;;;;;9.7;2.8;;;;;;;;;;;;;
2023/01/11 13:32:53;;;;;;;5.2;2.2;;;;;;;;;;;;;
2023/01/11 13:35:19;;;;;;;4;2.2;;;;;;;;;;;;;
2023/01/11 13:37:44;;;;;;;2.2;1.2;;;;;;;;;;;;;
2023/01/11 13:40:09;;;;;;;1.6;1;;;;;;;;;;;;;
2023/01/11 13:42:34;;;;;;;4.1;1.6;;;;;;;;;;;;;
2023/01/11 13:45:02;;;;;;;3.5;2.2;;;;;;;;;;;;;
2023/01/11 13:47:27;;;;;;;1.3;0.9;;;;;;;;;;;;;
2023/01/11 13:49:54;;;;;;;1.7;0.9;;;;;;;;;;;;;
2023/01/11 13:52:19;;;;;;;0.8;0.6;;;;;;;;;;;;;
2023/01/11 13:54:44;;;;;;;1.5;1.1;;;;;;;;;;;;;
2023/01/11 13:57:10;;;;;;;2.4;1.3;;;;;;;;;;;;;
2023/01/11 13:59:35;;;;;;;6.7;1.1;;;;;;;;;;;;;
2023/01/11 14:02:00;;;;;;;2.5;0.9;;;;;;;;;;;;;
2023/01/11 14:04:25;;;;;;;3.4;1.3;;;;;;;;;;;;;
2023/01/11 14:06:52;;;;;;;3.6;1.2;;;;;;;;;;;;;
2023/01/11 14:09:15;;;;;;;1.4;1.2;;;;;;;;;;;;;
2023/01/11 14:11:41;;;;;;;2.6;1.2;;;;;;;;;;;;;
2023/01/11 14:14:16;;;;;;;0.6;0.6;;;;;;;;;;;;;
2023/01/11 14:16:31;;;;;;;1;0.9;;;;;;;;;;;;;
2023/01/11 14:18:56;;;;;;;3.7;1.5;;;;;;;;;;;;;
2023/01/11 14:21:21;;;;;;;4.4;2;;;;;;;;;;;;;
2023/01/11 14:23:46;;;;;;;2.9;1.4;;;;;;;;;;;;;
2023/01/11 14:26:14;;;;;;;2.9;1.5;;;;;;;;;;;;;
2023/01/11 14:28:40;;;;;;;2.8;1.1;;;;;;;;;;;;;
2023/01/11 14:31:05;;;;;;;3.2;1.1;;;;;;;;;;;;;
2023/01/11 14:33:30;;;;;;;2.7;1.4;;;;;;;;;;;;;
2023/01/11 14:35:57;;;;;;;2.6;1.2;;;;;;;;;;;;;
2023/01/11 14:38:22;;;;;;;9.3;1.8;;;;;;;;;;;;;
2023/01/11 14:40:47;;;;;;;3.6;1.2;;;;;;;;;;;;;
2023/01/11 14:43:12;;;;;;;2.3;1.7;;;;;;;;;;;;;
2023/01/11 14:45:37;;;;;;;3.2;1.7;;;;;;;;;;;;;
2023/01/11 14:48:02;;;;;;;3.7;2;;;;;;;;;;;;;
2023/01/11 14:50:27;;;;;;;2.3;1.2;;;;;;;;;;;;;
2023/01/11 14:52:52;;;;;;;2;1.6;;;;;;;;;;;;;
2023/01/11 14:55:18;;;;;;;1.9;1.4;;;;;;;;;;;;;
2023/01/11 14:57:44;;;;;;;2.7;1.8;;;;;;;;;;;;;
2023/01/11 15:00:09;;;;;;;2.4;1.3;;;;;;;;;;;;;
2023/01/11 15:02:37;;;;;;;3.4;2;;;;;;;;;;;;;
2023/01/11 15:05:03;;;;;;;2.1;1.7;;;;;;;;;;;;;
2023/01/11 15:07:30;;;;;;;2.1;1.7;;;;;;;;;;;;;
2023/01/11 15:09:55;;;;;;;4.2;2.9;;;;;;;;;;;;;
2023/01/11 15:12:23;;;;;;;5.2;3.7;;;;;;;;;;;;;
2023/01/11 15:14:48;;;;;;;4.9;3.2;;;;;;;;;;;;;
2023/01/11 15:19:38;;;;;;;4.8;3.3;;;;;;;;;;;;;
2023/01/11 15:22:06;;;;;;;4;3;;;;;;;;;;;;;
2023/01/11 15:24:31;;;;;;;6.5;5.2;;;;;;;;;;;;;
2023/01/11 15:26:57;;;;;;;5.5;4.1;;;;;;;;;;;;;
2023/01/11 15:29:22;;;;;;;6;3.8;;;;;;;;;;;;;
2023/01/11 15:31:47;;;;;;;7;4.1;;;;;;;;;;;;;
2023/01/11 15:34:12;;;;;;;6.6;4.5;;;;;;;;;;;;;
2023/01/11 15:36:37;;;;;;;6.2;4.4;;;;;;;;;;;;;
2023/01/11 15:39:03;;;;;;;6.2;4.6;;;;;;;;;;;;;
2023/01/11 15:43:53;;;;;;;3.4;2.7;;;;;;;;;;;;;
2023/01/11 15:48:43;;;;;;;2.9;2.4;;;;;;;;;;;;;
2023/01/11 15:51:10;;;;;;;3;2.3;;;;;;;;;;;;;
2023/01/11 15:53:35;;;;;;;2.3;1.7;;;;;;;;;;;;;
2023/01/11 15:56:00;;;;;;;2.8;2.1;;;;;;;;;;;;;
2023/01/11 15:58:27;;;;;;;5.5;3.1;;;;;;;;;;;;;
2023/01/11 16:00:50;;;;;;;3.3;2.3;;;;;;;;;;;;;
2023/01/11 16:03:15;;;;;;;3.3;2.3;;;;;;;;;;;;;
2023/01/11 16:05:41;;;;;;;7.7;3.9;;;;;;;;;;;;;
2023/01/11 16:08:06;;;;;;;3.4;2;;;;;;;;;;;;;
2023/01/11 16:10:31;;;;;;;3.5;2.2;;;;;;;;;;;;;
2023/01/11 16:12:56;;;;;;;4;2.3;;;;;;;;;;;;;
2023/01/11 16:15:21;;;;;;;3.3;2.6;;;;;;;;;;;;;
2023/01/11 16:17:46;;;;;;;3.7;2.2;;;;;;;;;;;;;
2023/01/11 16:20:15;;;;;;;4.4;2.9;;;;;;;;;;;;;
2023/01/11 16:22:40;;;;;;;5.4;3;;;;;;;;;;;;;
2023/01/11 16:25:08;;;;;;;4.4;2.7;;;;;;;;;;;;;
2023/01/11 16:27:33;;;;;;;3.7;2.4;;;;;;;;;;;;;
2023/01/11 16:29:58;;;;;;;4.9;2.5;;;;;;;;;;;;;
2023/01/11 16:32:25;;;;;;;3.9;2.5;;;;;;;;;;;;;
2023/01/11 16:34:52;;;;;;;5.1;3.6;;;;;;;;;;;;;
2023/01/11 16:37:16;;;;;;;5.2;3.7;;;;;;;;;;;;;
2023/01/11 16:39:42;;;;;;;3.8;3.2;;;;;;;;;;;;;
2023/01/11 16:42:07;;;;;;;3.8;2.7;;;;;;;;;;;;;
2023/01/11 16:44:33;;;;;;;3.8;3;;;;;;;;;;;;;
2023/01/11 16:46:59;;;;;;;4.4;3.2;;;;;;;;;;;;;
2023/01/11 16:49:24;;;;;;;4.7;3.3;;;;;;;;;;;;;
2023/01/11 16:51:49;;;;;;;5.3;3.9;;;;;;;;;;;;;
2023/01/11 16:54:14;;;;;;;5;4.5;;;;;;;;;;;;;
2023/01/11 16:56:43;;;;;;;7.9;5.9;;;;;;;;;;;;;
2023/01/11 16:59:06;;;;;;;12.5;7.1;;;;;;;;;;;;;
2023/01/11 17:01:33;;;;;;;18.6;11.9;;;;;;;;;;;;;
2023/01/11 17:03:58;;;;;;;14.2;10;;;;;;;;;;;;;
2023/01/11 17:06:24;;;;;;;27.6;17.4;;;;;;;;;;;;;
2023/01/11 17:08:49;;;;;;;13.6;8.9;;;;;;;;;;;;;
2023/01/11 17:11:14;;;;;;;6.5;4.6;;;;;;;;;;;;;
2023/01/11 17:14:12;;;;;;;4.6;3.3;;;;;;;;;;;;;
2023/01/11 17:16:07;;;;;;;8.2;5;;;;;;;;;;;;;
2023/01/11 17:18:32;;;;;;;4.9;3;;;;;;;;;;;;;
2023/01/11 17:21:00;;;;;;;4.6;3.1;;;;;;;;;;;;;
2023/01/11 17:23:25;;;;;;;8.2;5.7;;;;;;;;;;;;;
2023/01/11 17:25:50;;;;;;;8.4;6.1;;;;;;;;;;;;;
2023/01/11 17:28:15;;;;;;;18;11;;;;;;;;;;;;;
2023/01/11 17:30:42;;;;;;;25;14.3;;;;;;;;;;;;;
2023/01/11 17:33:07;;;;;;;27.1;14.1;;;;;;;;;;;;;
2023/01/11 17:35:35;;;;;;;35.2;25.3;;;;;;;;;;;;;
2023/01/11 17:37:59;;;;;;;26.9;17.4;;;;;;;;;;;;;
2023/01/11 17:40:28;;;;;;;30.7;18.9;;;;;;;;;;;;;
2023/01/11 17:45:19;;;;;;;18.8;12.7;;;;;;;;;;;;;
2023/01/11 17:47:47;;;;;;;16.2;10;;;;;;;;;;;;;
2023/01/11 17:50:12;;;;;;;17.4;12;;;;;;;;;;;;;
2023/01/11 17:52:41;;;;;;;22.1;13.7;;;;;;;;;;;;;
2023/01/11 17:55:06;;;;;;;20;13.1;;;;;;;;;;;;;
2023/01/11 17:57:31;;;;;;;20.6;13.5;;;;;;;;;;;;;
2023/01/11 17:59:56;;;;;;;20.4;13.1;;;;;;;;;;;;;
2023/01/11 18:02:25;;;;;;;18.9;12.6;;;;;;;;;;;;;
2023/01/11 18:04:50;;;;;;;24.5;15.8;;;;;;;;;;;;;
2023/01/11 18:07:17;;;;;;;43;28.7;;;;;;;;;;;;;
2023/01/11 18:09:42;;;;;;;28.7;18.7;;;;;;;;;;;;;
2023/01/11 18:12:07;;;;;;;17.4;13.2;;;;;;;;;;;;;
2023/01/11 18:14:32;;;;;;;29.2;19.7;;;;;;;;;;;;;
2023/01/11 18:17:10;;;;;;;47.2;32.4;;;;;;;;;;;;;
2023/01/11 18:19:37;;;;;;;28.4;22.7;;;;;;;;;;;;;
2023/01/11 18:22:02;;;;;;;13.6;10.3;;;;;;;;;;;;;
2023/01/11 18:24:27;;;;;;;5.5;3.2;;;;;;;;;;;;;
2023/01/11 18:26:52;;;;;;;5.7;3.9;;;;;;;;;;;;;
2023/01/11 18:29:18;;;;;;;9.5;5.5;;;;;;;;;;;;;
2023/01/11 18:31:43;;;;;;;42.1;25;;;;;;;;;;;;;
2023/01/11 18:34:08;;;;;;;6.6;4.3;;;;;;;;;;;;;
2023/01/11 18:36:34;;;;;;;5.9;4.5;;;;;;;;;;;;;
2023/01/11 18:39:00;;;;;;;6.3;4.2;;;;;;;;;;;;;
2023/01/11 18:43:55;;;;;;;10.2;7;;;;;;;;;;;;;
2023/01/11 18:46:20;;;;;;;6.1;4.1;;;;;;;;;;;;;
2023/01/11 18:48:47;;;;;;;5.1;4.3;;;;;;;;;;;;;
2023/01/11 18:51:12;;;;;;;6.4;4.8;;;;;;;;;;;;;
2023/01/11 18:53:38;;;;;;;8.4;5.5;;;;;;;;;;;;;
2023/01/11 18:56:03;;;;;;;7.2;5.1;;;;;;;;;;;;;
2023/01/11 18:58:28;;;;;;;8.6;6;;;;;;;;;;;;;
2023/01/11 19:00:53;;;;;;;6.3;5;;;;;;;;;;;;;
2023/01/11 19:03:19;;;;;;;8.8;6.4;;;;;;;;;;;;;
2023/01/11 19:05:45;;;;;;;11.8;7.4;;;;;;;;;;;;;
2023/01/11 19:08:11;;;;;;;9.5;6.2;;;;;;;;;;;;;
2023/01/11 19:10:36;;;;;;;11.2;7.7;;;;;;;;;;;;;
2023/01/11 19:13:02;;;;;;;13.9;10;;;;;;;;;;;;;
2023/01/11 19:15:27;;;;;;;12.2;8.8;;;;;;;;;;;;;
2023/01/11 19:17:54;;;;;;;12.2;9.1;;;;;;;;;;;;;
2023/01/11 19:20:19;;;;;;;8.7;6.3;;;;;;;;;;;;;
2023/01/11 19:22:45;;;;;;;11.4;8;;;;;;;;;;;;;
2023/01/11 19:25:10;;;;;;;9.8;7.3;;;;;;;;;;;;;
2023/01/11 19:27:36;;;;;;;9.6;6.4;;;;;;;;;;;;;
2023/01/11 19:30:01;;;;;;;8.1;6.5;;;;;;;;;;;;;
2023/01/11 19:32:31;;;;;;;8.5;6.3;;;;;;;;;;;;;
2023/01/11 19:34:58;;;;;;;8.4;6.7;;;;;;;;;;;;;
2023/01/11 19:37:22;;;;;;;8.6;5.8;;;;;;;;;;;;;
2023/01/11 19:39:47;;;;;;;9.1;6.3;;;;;;;;;;;;;
2023/01/11 19:42:12;;;;;;;8.7;6.2;;;;;;;;;;;;;
2023/01/11 19:44:38;;;;;;;8.8;6.5;;;;;;;;;;;;;